createdAt,value
2018-09-19T00:00:41.809Z,19.09
2018-09-19T00:01:41.988Z,19.07
2018-09-19T00:02:42.176Z,18.89
2018-09-19T00:03:42.350Z,18.93
2018-09-19T00:04:42.541Z,18.81
2018-09-19T00:06:42.886Z,18.78
2018-09-19T00:07:43.082Z,18.80
2018-09-19T00:08:43.246Z,18.78
2018-09-19T00:09:43.427Z,18.83
2018-09-19T00:10:43.648Z,18.84
2018-09-19T00:11:43.791Z,18.81
2018-09-19T00:12:43.973Z,18.75
2018-09-19T00:13:44.149Z,18.80
2018-09-19T00:14:44.336Z,18.70
2018-09-19T00:15:44.542Z,18.78
2018-09-19T00:16:44.714Z,18.75
2018-09-19T00:17:44.894Z,18.84
2018-09-19T00:18:45.073Z,18.89
2018-09-19T00:19:45.246Z,18.71
2018-09-19T00:20:45.412Z,18.58
2018-09-19T00:21:45.616Z,18.65
2018-09-19T00:22:45.776Z,18.56
2018-09-19T00:23:45.952Z,18.47
2018-09-19T00:24:46.132Z,18.52
2018-09-19T00:25:46.315Z,18.47
2018-09-19T00:26:46.545Z,18.44
2018-09-19T00:27:46.669Z,18.50
2018-09-19T00:28:46.847Z,18.41
2018-09-19T00:29:47.020Z,18.38
2018-09-19T00:30:47.206Z,18.47
2018-09-19T00:31:47.390Z,18.29
2018-09-19T00:32:47.574Z,18.31
2018-09-19T00:33:47.752Z,18.19
2018-09-19T00:34:47.941Z,18.28
2018-09-19T00:35:48.117Z,18.15
2018-09-19T00:36:48.289Z,18.35
2018-09-19T00:37:48.471Z,18.19
2018-09-19T00:38:48.655Z,18.31
2018-09-19T00:39:48.832Z,18.23
2018-09-19T00:40:49.006Z,18.15
2018-09-19T00:41:49.181Z,18.18
2018-09-19T00:42:49.364Z,18.01
2018-09-19T00:43:49.542Z,18.03
2018-09-19T00:44:49.723Z,18.07
2018-09-19T00:45:49.895Z,18.04
2018-09-19T00:46:50.069Z,18.04
2018-09-19T00:47:50.251Z,18.01
2018-09-19T00:48:50.431Z,18.04
2018-09-19T00:49:50.609Z,18.03
2018-09-19T00:50:50.798Z,18.15
2018-09-19T00:51:50.977Z,18.10
2018-09-19T00:52:51.155Z,18.08
2018-09-19T00:53:51.343Z,18.08
2018-09-19T00:54:51.525Z,17.98
2018-09-19T00:55:51.752Z,17.94
2018-09-19T00:56:51.882Z,18.04
2018-09-19T00:57:52.063Z,18.00
2018-09-19T00:58:52.244Z,17.98
2018-09-19T00:59:52.430Z,17.92
2018-09-19T01:00:52.612Z,17.95
2018-09-19T01:01:52.784Z,17.94
2018-09-19T01:02:52.963Z,17.95
2018-09-19T01:03:53.136Z,17.94
2018-09-19T01:04:53.319Z,18.01
2018-09-19T01:05:53.543Z,17.95
2018-09-19T01:06:53.686Z,17.92
2018-09-19T01:07:53.857Z,17.92
2018-09-19T01:08:54.040Z,17.94
2018-09-19T01:09:54.216Z,17.86
2018-09-19T01:10:54.402Z,17.95
2018-09-19T01:11:54.577Z,17.82
2018-09-19T01:12:54.763Z,17.85
2018-09-19T01:13:54.950Z,17.87
2018-09-19T01:14:55.125Z,17.86
2018-09-19T01:15:55.303Z,17.87
2018-09-19T01:16:55.490Z,17.72
2018-09-19T01:17:55.672Z,17.74
2018-09-19T01:18:55.848Z,17.74
2018-09-19T01:19:56.032Z,17.70
2018-09-19T01:20:56.278Z,17.60
2018-09-19T01:21:56.400Z,17.65
2018-09-19T01:22:56.578Z,17.63
2018-09-19T01:23:56.753Z,17.65
2018-09-19T01:24:56.931Z,17.48
2018-09-19T01:25:57.116Z,17.31
2018-09-19T01:26:57.291Z,17.12
2018-09-19T01:27:57.470Z,16.87
2018-09-19T01:28:57.656Z,16.87
2018-09-19T01:29:57.832Z,16.96
2018-09-19T01:30:58.029Z,17.06
2018-09-19T01:31:58.189Z,17.15
2018-09-19T01:32:58.373Z,17.22
2018-09-19T01:33:58.547Z,17.16
2018-09-19T01:34:58.730Z,17.23
2018-09-19T01:35:58.918Z,17.06
2018-09-19T01:36:59.087Z,17.19
2018-09-19T01:37:59.273Z,17.06
2018-09-19T01:38:59.460Z,17.08
2018-09-19T01:39:59.623Z,17.15
2018-09-19T01:40:59.805Z,17.19
2018-09-19T01:41:59.982Z,17.22
2018-09-19T01:43:00.164Z,17.24
2018-09-19T01:44:00.342Z,17.23
2018-09-19T01:45:00.523Z,17.29
2018-09-19T01:46:00.704Z,17.34
2018-09-19T01:47:00.888Z,17.31
2018-09-19T01:48:01.062Z,17.26
2018-09-19T01:49:01.241Z,17.26
2018-09-19T01:50:01.426Z,17.26
2018-09-19T01:51:01.603Z,17.30
2018-09-19T01:52:01.783Z,17.27
2018-09-19T01:53:01.968Z,17.22
2018-09-19T01:54:02.138Z,17.06
2018-09-19T01:55:02.322Z,17.06
2018-09-19T01:56:02.503Z,17.05
2018-09-19T01:57:02.680Z,17.16
2018-09-19T01:58:02.856Z,17.22
2018-09-19T01:59:03.042Z,17.19
2018-09-19T02:00:03.222Z,17.02
2018-09-19T02:01:03.399Z,17.02
2018-09-19T02:02:03.585Z,17.11
2018-09-19T02:03:03.758Z,16.97
2018-09-19T02:04:03.935Z,17.02
2018-09-19T02:05:04.119Z,17.06
2018-09-19T02:06:04.308Z,16.96
2018-09-19T02:07:04.491Z,17.05
2018-09-19T02:08:04.676Z,17.01
2018-09-19T02:09:04.848Z,17.12
2018-09-19T02:10:05.029Z,17.08
2018-09-19T02:11:05.216Z,17.20
2018-09-19T02:12:05.387Z,17.20
2018-09-19T02:13:05.603Z,17.23
2018-09-19T02:14:05.764Z,17.31
2018-09-19T02:15:05.942Z,17.26
2018-09-19T02:16:06.125Z,17.16
2018-09-19T02:17:06.303Z,17.20
2018-09-19T02:18:06.487Z,17.06
2018-09-19T02:19:06.663Z,16.96
2018-09-19T02:20:06.848Z,17.08
2018-09-19T02:21:07.033Z,17.04
2018-09-19T02:22:07.209Z,17.06
2018-09-19T02:23:07.382Z,17.05
2018-09-19T02:24:07.570Z,17.05
2018-09-19T02:25:07.743Z,17.11
2018-09-19T02:26:07.936Z,17.19
2018-09-19T02:27:08.106Z,17.23
2018-09-19T02:28:08.295Z,17.29
2018-09-19T02:29:08.453Z,17.29
2018-09-19T02:30:08.637Z,17.24
2018-09-19T02:31:08.823Z,17.29
2018-09-19T02:32:09.008Z,17.33
2018-09-19T02:33:09.145Z,17.27
2018-09-19T02:34:09.334Z,17.26
2018-09-19T02:35:09.504Z,17.20
2018-09-19T02:36:09.683Z,17.16
2018-09-19T02:37:09.870Z,17.19
2018-09-19T02:38:10.050Z,17.19
2018-09-19T02:39:10.241Z,17.26
2018-09-19T02:40:10.407Z,17.27
2018-09-19T02:41:10.580Z,17.24
2018-09-19T02:42:10.766Z,17.29
2018-09-19T02:43:10.932Z,17.26
2018-09-19T02:44:11.109Z,17.27
2018-09-19T02:45:11.293Z,17.33
2018-09-19T02:46:11.473Z,17.30
2018-09-19T02:47:11.653Z,17.36
2018-09-19T02:48:11.831Z,17.29
2018-09-19T02:49:12.003Z,17.30
2018-09-19T02:50:12.186Z,17.24
2018-09-19T02:51:12.370Z,17.19
2018-09-19T02:52:12.539Z,17.19
2018-09-19T02:53:12.735Z,17.24
2018-09-19T02:54:12.908Z,17.11
2018-09-19T02:55:13.163Z,17.09
2018-09-19T02:56:13.278Z,17.14
2018-09-19T02:57:13.450Z,17.22
2018-09-19T02:58:13.629Z,17.22
2018-09-19T02:59:13.808Z,17.20
2018-09-19T03:00:13.991Z,17.16
2018-09-19T03:01:14.161Z,17.11
2018-09-19T03:02:14.379Z,17.09
2018-09-19T03:03:14.519Z,17.06
2018-09-19T03:04:14.695Z,17.20
2018-09-19T03:05:14.872Z,17.20
2018-09-19T03:06:15.055Z,17.01
2018-09-19T03:07:15.231Z,17.05
2018-09-19T03:08:15.414Z,17.05
2018-09-19T03:09:15.590Z,16.96
2018-09-19T03:10:15.768Z,17.02
2018-09-19T03:11:15.942Z,17.04
2018-09-19T03:12:16.156Z,16.96
2018-09-19T03:13:16.304Z,16.89
2018-09-19T03:14:16.491Z,16.86
2018-09-19T03:15:16.679Z,16.87
2018-09-19T03:16:16.854Z,16.96
2018-09-19T03:17:17.175Z,17.02
2018-09-19T03:18:17.225Z,16.97
2018-09-19T03:19:17.391Z,17.09
2018-09-19T03:20:17.567Z,17.05
2018-09-19T03:21:17.745Z,16.97
2018-09-19T03:22:17.930Z,16.99
2018-09-19T03:23:18.109Z,16.93
2018-09-19T03:24:18.284Z,17.01
2018-09-19T03:25:18.453Z,16.93
2018-09-19T03:26:18.638Z,16.91
2018-09-19T03:27:18.812Z,16.96
2018-09-19T03:28:18.995Z,16.83
2018-09-19T03:29:19.172Z,16.83
2018-09-19T03:30:19.343Z,16.76
2018-09-19T03:31:19.535Z,16.78
2018-09-19T03:32:19.700Z,16.83
2018-09-19T03:33:19.883Z,16.84
2018-09-19T03:34:20.050Z,16.84
2018-09-19T03:35:20.279Z,16.87
2018-09-19T03:36:20.421Z,16.79
2018-09-19T03:37:20.587Z,16.79
2018-09-19T03:38:20.774Z,16.66
2018-09-19T03:39:20.939Z,16.65
2018-09-19T03:40:21.120Z,16.68
2018-09-19T03:41:21.300Z,16.66
2018-09-19T03:42:21.484Z,16.66
2018-09-19T03:43:21.660Z,16.58
2018-09-19T03:44:21.842Z,16.50
2018-09-19T03:45:22.029Z,16.51
2018-09-19T03:46:22.220Z,16.46
2018-09-19T03:47:22.384Z,16.46
2018-09-19T03:48:22.565Z,16.41
2018-09-19T03:49:22.741Z,16.42
2018-09-19T03:50:22.920Z,16.36
2018-09-19T03:51:23.100Z,16.50
2018-09-19T03:52:23.275Z,16.46
2018-09-19T03:53:23.461Z,16.46
2018-09-19T03:54:23.634Z,16.39
2018-09-19T03:55:23.825Z,16.39
2018-09-19T03:56:23.993Z,16.46
2018-09-19T03:57:24.180Z,16.36
2018-09-19T03:58:24.492Z,16.41
2018-09-19T03:59:24.533Z,16.49
2018-09-19T04:00:24.705Z,16.42
2018-09-19T04:01:24.886Z,16.54
2018-09-19T04:02:25.068Z,16.50
2018-09-19T04:03:25.239Z,16.57
2018-09-19T04:04:25.419Z,16.47
2018-09-19T04:05:25.597Z,16.51
2018-09-19T04:06:25.777Z,16.50
2018-09-19T04:07:25.955Z,16.61
2018-09-19T04:08:26.134Z,16.56
2018-09-19T04:09:26.316Z,16.42
2018-09-19T04:10:26.490Z,16.54
2018-09-19T04:11:26.683Z,16.57
2018-09-19T04:12:26.854Z,16.57
2018-09-19T04:13:27.034Z,16.64
2018-09-19T04:14:27.209Z,16.56
2018-09-19T04:15:27.385Z,16.53
2018-09-19T04:16:27.566Z,16.54
2018-09-19T04:17:27.741Z,16.42
2018-09-19T04:18:27.925Z,16.38
2018-09-19T04:19:28.105Z,16.41
2018-09-19T04:20:28.283Z,16.42
2018-09-19T04:21:28.468Z,16.33
2018-09-19T04:22:28.641Z,16.33
2018-09-19T04:23:28.820Z,16.35
2018-09-19T04:24:29.005Z,16.33
2018-09-19T04:25:29.187Z,16.26
2018-09-19T04:26:29.364Z,16.35
2018-09-19T04:27:29.547Z,16.33
2018-09-19T04:28:29.730Z,16.36
2018-09-19T04:29:29.899Z,16.42
2018-09-19T04:30:30.080Z,16.36
2018-09-19T04:31:30.267Z,16.43
2018-09-19T04:32:30.499Z,16.42
2018-09-19T04:33:30.617Z,16.41
2018-09-19T04:34:30.797Z,16.42
2018-09-19T04:35:30.978Z,16.43
2018-09-19T04:36:31.153Z,16.54
2018-09-19T04:37:31.333Z,16.47
2018-09-19T04:38:31.511Z,16.46
2018-09-19T04:39:31.692Z,16.51
2018-09-19T04:40:31.891Z,16.53
2018-09-19T04:41:32.053Z,16.61
2018-09-19T04:42:32.233Z,16.54
2018-09-19T04:43:32.415Z,16.57
2018-09-19T04:44:32.592Z,16.69
2018-09-19T04:45:32.775Z,16.64
2018-09-19T04:46:32.957Z,16.57
2018-09-19T04:47:33.124Z,16.50
2018-09-19T04:48:33.306Z,16.56
2018-09-19T04:49:33.479Z,16.53
2018-09-19T04:50:33.672Z,16.57
2018-09-19T04:51:33.871Z,16.50
2018-09-19T04:52:34.023Z,16.53
2018-09-19T04:53:34.199Z,16.56
2018-09-19T04:54:34.379Z,16.49
2018-09-19T04:55:34.562Z,16.47
2018-09-19T04:56:34.739Z,16.39
2018-09-19T04:57:34.932Z,16.43
2018-09-19T04:58:35.114Z,16.36
2018-09-19T04:59:35.280Z,16.33
2018-09-19T05:00:35.455Z,16.31
2018-09-19T05:01:35.644Z,16.24
2018-09-19T05:02:35.828Z,16.29
2018-09-19T05:03:35.996Z,16.29
2018-09-19T05:04:36.177Z,16.17
2018-09-19T05:05:36.358Z,16.23
2018-09-19T05:06:36.538Z,16.13
2018-09-19T05:07:36.718Z,16.15
2018-09-19T05:08:36.919Z,16.01
2018-09-19T05:09:37.069Z,16.02
2018-09-19T05:10:37.252Z,16.02
2018-09-19T05:11:37.431Z,16.15
2018-09-19T05:12:37.609Z,16.15
2018-09-19T05:13:37.790Z,16.10
2018-09-19T05:14:37.964Z,16.21
2018-09-19T05:15:38.153Z,16.21
2018-09-19T05:16:38.358Z,16.23
2018-09-19T05:17:38.532Z,16.21
2018-09-19T05:18:38.698Z,16.23
2018-09-19T05:19:38.870Z,16.23
2018-09-19T05:20:39.044Z,16.31
2018-09-19T05:21:39.228Z,16.35
2018-09-19T05:22:39.409Z,16.26
2018-09-19T05:23:39.585Z,16.28
2018-09-19T05:24:39.769Z,16.23
2018-09-19T05:25:39.951Z,16.24
2018-09-19T05:26:40.136Z,16.17
2018-09-19T05:27:40.309Z,16.20
2018-09-19T05:28:40.517Z,16.32
2018-09-19T05:29:40.706Z,16.26
2018-09-19T05:30:40.878Z,16.12
2018-09-19T05:31:41.145Z,16.13
2018-09-19T05:32:41.233Z,16.23
2018-09-19T05:33:41.455Z,16.29
2018-09-19T05:34:41.590Z,16.39
2018-09-19T05:35:41.781Z,16.23
2018-09-19T05:36:41.953Z,16.32
2018-09-19T05:37:42.126Z,16.15
2018-09-19T05:38:42.312Z,16.26
2018-09-19T05:39:42.503Z,16.23
2018-09-19T05:40:42.677Z,16.16
2018-09-19T05:41:42.851Z,16.09
2018-09-19T05:42:43.027Z,16.13
2018-09-19T05:43:43.208Z,16.00
2018-09-19T05:44:43.390Z,15.72
2018-09-19T05:45:43.566Z,15.73
2018-09-19T05:46:43.758Z,15.68
2018-09-19T05:47:43.925Z,15.64
2018-09-19T05:48:44.110Z,15.67
2018-09-19T05:49:44.289Z,15.64
2018-09-19T05:50:44.473Z,15.76
2018-09-19T05:51:44.652Z,15.80
2018-09-19T05:52:44.825Z,15.77
2018-09-19T05:53:45.005Z,16.00
2018-09-19T05:54:45.186Z,15.98
2018-09-19T05:55:45.369Z,16.02
2018-09-19T05:56:45.544Z,16.23
2018-09-19T05:57:45.720Z,16.24
2018-09-19T05:58:45.907Z,16.53
2018-09-19T05:59:46.084Z,16.79
2018-09-19T06:00:46.275Z,17.05
2018-09-19T06:01:46.440Z,16.66
2018-09-19T06:02:46.620Z,16.49
2018-09-19T06:03:46.825Z,16.61
2018-09-19T06:04:47.035Z,16.66
2018-09-19T06:05:47.165Z,16.76
2018-09-19T06:06:47.357Z,16.78
2018-09-19T06:07:47.522Z,16.97
2018-09-19T06:08:47.710Z,16.87
2018-09-19T06:09:47.890Z,16.94
2018-09-19T06:10:48.067Z,17.12
2018-09-19T06:11:48.252Z,17.05
2018-09-19T06:12:48.473Z,17.06
2018-09-19T06:13:48.618Z,17.04
2018-09-19T06:14:48.815Z,17.54
2018-09-19T06:15:48.973Z,18.18
2018-09-19T06:16:49.154Z,18.59
2018-09-19T06:17:49.338Z,19.15
2018-09-19T06:18:49.506Z,19.44
2018-09-19T06:19:56.555Z,19.36
2018-09-19T06:20:49.863Z,19.52
2018-09-19T06:21:50.013Z,19.64
2018-09-19T06:22:50.188Z,19.82
2018-09-19T06:23:50.369Z,19.44
2018-09-19T06:24:50.570Z,19.33
2018-09-19T06:25:50.745Z,18.92
2018-09-19T06:26:50.934Z,19.27
2018-09-19T06:27:51.086Z,19.40
2018-09-19T06:28:51.267Z,19.30
2018-09-19T06:29:51.453Z,18.75
2018-09-19T06:30:51.655Z,18.34
2018-09-19T06:31:51.816Z,18.25
2018-09-19T06:32:52.168Z,17.85
2018-09-19T06:33:52.174Z,18.03
2018-09-19T06:34:52.382Z,18.73
2018-09-19T06:35:52.755Z,19.39
2018-09-19T06:36:52.772Z,19.22
2018-09-19T06:37:52.946Z,19.19
2018-09-19T06:38:53.122Z,18.98
2018-09-19T06:39:53.334Z,18.86
2018-09-19T06:40:53.541Z,18.96
2018-09-19T06:41:53.676Z,19.08
2018-09-19T06:42:53.861Z,18.98
2018-09-19T06:43:54.042Z,18.84
2018-09-19T06:44:54.240Z,18.66
2018-09-19T06:45:54.399Z,18.53
2018-09-19T06:46:54.624Z,18.47
2018-09-19T06:47:54.763Z,18.50
2018-09-19T06:48:54.942Z,18.52
2018-09-19T06:49:55.195Z,19.24
2018-09-19T06:50:55.243Z,19.44
2018-09-19T06:51:55.465Z,19.92
2018-09-19T06:52:55.632Z,20.44
2018-09-19T06:53:55.787Z,21.06
2018-09-19T06:54:55.967Z,21.60
2018-09-19T06:55:56.150Z,22.00
2018-09-19T06:56:56.360Z,22.36
2018-09-19T06:57:56.501Z,22.17
2018-09-19T06:58:56.676Z,21.92
2018-09-19T06:59:56.864Z,21.48
2018-09-19T07:00:57.065Z,21.43
2018-09-19T07:01:57.243Z,21.20
2018-09-19T07:02:57.460Z,20.99
2018-09-19T07:03:57.628Z,20.81
2018-09-19T07:04:57.810Z,20.63
2018-09-19T07:05:58.118Z,20.47
2018-09-19T07:06:58.194Z,20.39
2018-09-19T07:07:58.378Z,20.34
2018-09-19T07:08:58.549Z,20.36
2018-09-19T07:09:58.725Z,20.25
2018-09-19T07:10:58.943Z,20.11
2018-09-19T07:11:59.090Z,20.10
2018-09-19T07:12:59.269Z,19.77
2018-09-19T07:13:59.452Z,19.81
2018-09-19T07:14:59.630Z,19.19
2018-09-19T07:15:59.806Z,18.98
2018-09-19T07:16:59.991Z,19.40
2018-09-19T07:18:00.172Z,19.52
2018-09-19T07:19:00.428Z,20.04
2018-09-19T07:20:00.529Z,20.48
2018-09-19T07:21:00.708Z,20.87
2018-09-19T07:22:00.919Z,21.43
2018-09-19T07:23:01.085Z,21.83
2018-09-19T07:24:01.282Z,21.92
2018-09-19T07:25:01.492Z,21.62
2018-09-19T07:26:01.659Z,21.35
2018-09-19T07:27:01.841Z,21.35
2018-09-19T07:28:02.027Z,21.76
2018-09-19T07:29:02.203Z,21.72
2018-09-19T07:30:02.397Z,21.89
2018-09-19T07:31:02.658Z,21.50
2018-09-19T07:32:02.745Z,21.02
2018-09-19T07:33:02.942Z,21.12
2018-09-19T07:34:03.123Z,21.88
2018-09-19T07:35:03.315Z,22.48
2018-09-19T07:36:03.519Z,22.84
2018-09-19T07:37:03.696Z,22.75
2018-09-19T07:38:03.855Z,23.31
2018-09-19T07:39:04.072Z,23.69
2018-09-19T07:40:04.238Z,24.28
2018-09-19T07:41:04.425Z,24.16
2018-09-19T07:42:04.584Z,24.54
2018-09-19T07:43:04.773Z,24.70
2018-09-19T07:44:04.962Z,24.42
2018-09-19T07:45:05.154Z,23.77
2018-09-19T07:46:05.337Z,23.86
2018-09-19T07:47:05.521Z,23.48
2018-09-19T07:48:05.708Z,23.93
2018-09-19T07:49:05.880Z,23.41
2018-09-19T07:50:06.079Z,23.92
2018-09-19T07:51:06.254Z,23.99
2018-09-19T07:52:06.454Z,24.51
2018-09-19T07:53:06.638Z,24.81
2018-09-19T07:54:06.834Z,25.07
2018-09-19T07:55:07.029Z,25.50
2018-09-19T07:56:07.164Z,25.18
2018-09-19T07:57:07.338Z,24.98
2018-09-19T07:58:07.523Z,24.53
2018-09-19T07:59:07.712Z,24.76
2018-09-19T08:00:07.894Z,25.03
2018-09-19T08:01:08.124Z,25.03
2018-09-19T08:02:08.267Z,24.35
2018-09-19T08:03:08.464Z,24.51
2018-09-19T08:04:08.655Z,24.69
2018-09-19T08:05:08.853Z,24.91
2018-09-19T08:06:09.033Z,24.73
2018-09-19T08:07:09.222Z,25.43
2018-09-19T08:08:09.409Z,25.75
2018-09-19T08:09:09.724Z,26.03
2018-09-19T08:10:09.823Z,25.22
2018-09-19T08:11:09.968Z,25.68
2018-09-19T08:12:10.226Z,26.26
2018-09-19T08:13:10.357Z,26.53
2018-09-19T08:14:10.550Z,26.29
2018-09-19T08:15:10.738Z,26.28
2018-09-19T08:16:10.918Z,26.53
2018-09-19T08:17:11.106Z,26.96
2018-09-19T08:18:11.301Z,27.36
2018-09-19T08:19:11.497Z,27.42
2018-09-19T08:20:11.662Z,26.93
2018-09-19T08:21:11.851Z,27.32
2018-09-19T08:22:12.031Z,27.37
2018-09-19T08:23:12.214Z,27.58
2018-09-19T08:24:12.407Z,27.40
2018-09-19T08:25:12.681Z,27.77
2018-09-19T08:26:12.780Z,28.10
2018-09-19T08:27:12.962Z,28.23
2018-09-19T08:28:13.143Z,28.69
2018-09-19T08:29:13.332Z,28.32
2018-09-19T08:30:13.508Z,28.45
2018-09-19T08:31:13.715Z,28.76
2018-09-19T08:32:13.886Z,28.75
2018-09-19T08:33:14.075Z,28.89
2018-09-19T08:34:14.248Z,28.67
2018-09-19T08:35:14.434Z,28.49
2018-09-19T08:36:14.622Z,29.05
2018-09-19T08:37:14.806Z,29.19
2018-09-19T08:38:14.992Z,28.62
2018-09-19T08:39:15.182Z,28.67
2018-09-19T08:40:15.397Z,29.19
2018-09-19T08:41:15.613Z,29.54
2018-09-19T08:42:15.723Z,29.76
2018-09-19T08:43:15.899Z,29.88
2018-09-19T08:44:16.099Z,29.90
2018-09-19T08:45:16.343Z,30.05
2018-09-19T08:46:16.468Z,30.21
2018-09-19T08:47:16.658Z,29.94
2018-09-19T08:48:16.819Z,29.87
2018-09-19T08:49:17.010Z,30.30
2018-09-19T08:50:17.198Z,30.40
2018-09-19T08:51:17.391Z,30.61
2018-09-19T08:52:17.581Z,30.73
2018-09-19T08:53:17.852Z,30.69
2018-09-19T08:54:17.944Z,30.68
2018-09-19T08:55:18.126Z,30.55
2018-09-19T08:56:18.321Z,30.80
2018-09-19T08:57:18.512Z,30.72
2018-09-19T08:58:18.707Z,30.62
2018-09-19T08:59:18.914Z,30.03
2018-09-19T09:00:19.090Z,29.95
2018-09-19T09:01:19.290Z,30.55
2018-09-19T09:02:19.460Z,30.96
2018-09-19T09:03:19.643Z,31.36
2018-09-19T09:04:19.832Z,31.58
2018-09-19T09:05:20.068Z,31.47
2018-09-19T09:06:20.218Z,31.69
2018-09-19T09:07:20.414Z,31.54
2018-09-19T09:08:20.593Z,31.49
2018-09-19T09:09:20.803Z,31.56
2018-09-19T09:10:20.999Z,31.76
2018-09-19T09:11:21.226Z,31.71
2018-09-19T09:12:21.421Z,31.71
2018-09-19T09:13:21.563Z,31.42
2018-09-19T09:14:21.754Z,31.80
2018-09-19T09:15:21.943Z,31.97
2018-09-19T09:16:22.133Z,31.87
2018-09-19T09:17:22.321Z,32.18
2018-09-19T09:18:22.515Z,31.84
2018-09-19T09:20:22.881Z,32.67
2018-09-19T09:21:23.082Z,32.58
2018-09-19T09:22:23.265Z,32.01
2018-09-19T09:23:23.458Z,31.94
2018-09-19T09:24:23.651Z,32.12
2018-09-19T09:25:23.837Z,31.65
2018-09-19T09:26:24.026Z,31.55
2018-09-19T09:27:24.272Z,31.49
2018-09-19T09:28:24.417Z,31.31
2018-09-19T09:29:24.576Z,31.27
2018-09-19T09:30:24.790Z,31.52
2018-09-19T09:31:24.967Z,31.37
2018-09-19T09:32:25.155Z,31.54
2018-09-19T09:33:25.350Z,31.17
2018-09-19T09:34:25.627Z,31.28
2018-09-19T09:35:25.753Z,30.96
2018-09-19T09:36:25.956Z,31.43
2018-09-19T09:37:26.135Z,31.61
2018-09-19T09:38:26.327Z,31.34
2018-09-19T09:39:26.524Z,31.61
2018-09-19T09:40:26.773Z,31.52
2018-09-19T09:41:26.898Z,31.92
2018-09-19T09:42:27.086Z,32.07
2018-09-19T09:43:27.305Z,32.23
2018-09-19T09:44:27.468Z,31.29
2018-09-19T09:45:27.651Z,30.91
2018-09-19T09:46:27.840Z,31.12
2018-09-19T09:47:28.044Z,31.40
2018-09-19T09:48:28.211Z,31.14
2018-09-19T09:49:28.399Z,30.68
2018-09-19T09:50:28.704Z,31.22
2018-09-19T09:51:28.783Z,31.55
2018-09-19T09:52:28.962Z,31.77
2018-09-19T09:53:29.220Z,32.22
2018-09-19T09:54:29.339Z,32.33
2018-09-19T09:55:29.521Z,32.92
2018-09-19T09:56:29.713Z,32.52
2018-09-19T09:57:29.904Z,32.97
2018-09-19T09:58:30.088Z,33.47
2018-09-19T09:59:30.314Z,33.01
2018-09-19T10:00:30.467Z,32.71
2018-09-19T10:01:30.630Z,32.52
2018-09-19T10:02:30.819Z,32.71
2018-09-19T10:03:31.038Z,32.74
2018-09-19T10:04:31.207Z,32.52
2018-09-19T10:05:31.405Z,33.08
2018-09-19T10:06:31.659Z,33.36
2018-09-19T10:07:31.779Z,33.57
2018-09-19T10:08:31.970Z,33.65
2018-09-19T10:09:32.161Z,33.71
2018-09-19T10:10:32.347Z,33.64
2018-09-19T10:11:32.539Z,33.23
2018-09-19T10:12:32.741Z,33.20
2018-09-19T10:13:32.992Z,32.75
2018-09-19T10:14:33.116Z,33.30
2018-09-19T10:15:33.306Z,32.70
2018-09-19T10:16:33.500Z,32.49
2018-09-19T10:17:33.690Z,32.49
2018-09-19T10:18:33.884Z,32.74
2018-09-19T10:19:34.081Z,33.12
2018-09-19T10:20:34.276Z,33.07
2018-09-19T10:21:34.483Z,33.49
2018-09-19T10:22:34.639Z,33.57
2018-09-19T10:23:34.842Z,33.52
2018-09-19T10:24:35.580Z,33.87
2018-09-19T10:25:35.212Z,33.87
2018-09-19T10:26:35.410Z,34.17
2018-09-19T10:27:35.602Z,33.86
2018-09-19T10:28:35.801Z,33.20
2018-09-19T10:29:36.039Z,33.02
2018-09-19T10:30:36.176Z,32.87
2018-09-19T10:31:36.419Z,33.50
2018-09-19T10:32:36.542Z,34.06
2018-09-19T10:33:36.731Z,33.99
2018-09-19T10:34:36.932Z,33.90
2018-09-19T10:35:37.115Z,34.01
2018-09-19T10:36:37.297Z,34.10
2018-09-19T10:37:37.495Z,33.90
2018-09-19T10:38:37.683Z,34.11
2018-09-19T10:39:37.878Z,34.40
2018-09-19T10:40:38.077Z,34.51
2018-09-19T10:41:38.268Z,33.59
2018-09-19T10:42:38.456Z,32.97
2018-09-19T10:43:38.647Z,33.22
2018-09-19T10:44:38.843Z,33.71
2018-09-19T10:45:39.033Z,34.29
2018-09-19T10:46:39.224Z,34.14
2018-09-19T10:47:39.416Z,34.51
2018-09-19T10:48:39.612Z,34.89
2018-09-19T10:49:39.805Z,35.11
2018-09-19T10:50:39.995Z,34.71
2018-09-19T10:51:40.180Z,34.25
2018-09-19T10:52:40.362Z,34.70
2018-09-19T10:53:40.556Z,33.84
2018-09-19T10:54:40.752Z,33.39
2018-09-19T10:55:40.937Z,33.15
2018-09-19T10:56:41.136Z,33.77
2018-09-19T10:57:41.319Z,34.48
2018-09-19T10:58:41.510Z,33.71
2018-09-19T10:59:41.698Z,33.80
2018-09-19T11:00:41.877Z,33.90
2018-09-19T11:01:42.068Z,33.90
2018-09-19T11:02:42.276Z,33.28
2018-09-19T11:03:42.463Z,33.28
2018-09-19T11:04:42.646Z,33.39
2018-09-19T11:05:42.829Z,32.89
2018-09-19T11:06:43.015Z,32.83
2018-09-19T11:07:43.216Z,32.23
2018-09-19T11:08:43.412Z,32.19
2018-09-19T11:09:43.608Z,32.36
2018-09-19T11:10:43.775Z,32.56
2018-09-19T11:11:43.967Z,32.48
2018-09-19T11:12:44.139Z,32.40
2018-09-19T11:13:44.331Z,32.37
2018-09-19T11:14:44.528Z,32.14
2018-09-19T11:15:44.706Z,32.03
2018-09-19T11:16:44.889Z,31.93
2018-09-19T11:17:45.086Z,32.03
2018-09-19T11:18:45.273Z,31.99
2018-09-19T11:19:45.484Z,31.81
2018-09-19T11:20:45.669Z,32.03
2018-09-19T11:21:45.862Z,32.11
2018-09-19T11:22:46.055Z,31.77
2018-09-19T11:23:46.252Z,31.37
2018-09-19T11:24:46.443Z,31.51
2018-09-19T11:25:46.618Z,31.40
2018-09-19T11:26:46.809Z,31.59
2018-09-19T11:27:47.001Z,31.66
2018-09-19T11:28:47.198Z,31.74
2018-09-19T11:29:47.367Z,31.66
2018-09-19T11:30:47.557Z,31.73
2018-09-19T11:31:47.744Z,31.81
2018-09-19T11:32:47.936Z,31.76
2018-09-19T11:33:48.123Z,31.74
2018-09-19T11:34:48.312Z,31.76
2018-09-19T11:35:48.496Z,31.47
2018-09-19T11:36:48.687Z,31.52
2018-09-19T11:37:48.876Z,31.44
2018-09-19T11:38:49.065Z,31.74
2018-09-19T11:39:49.254Z,31.81
2018-09-19T11:40:49.441Z,31.69
2018-09-19T11:41:49.634Z,31.61
2018-09-19T11:42:49.830Z,31.56
2018-09-19T11:43:50.011Z,31.40
2018-09-19T11:44:50.199Z,31.36
2018-09-19T11:45:50.385Z,31.44
2018-09-19T11:46:50.579Z,31.44
2018-09-19T11:47:50.765Z,31.56
2018-09-19T11:48:50.953Z,31.46
2018-09-19T11:49:51.142Z,31.40
2018-09-19T11:50:51.330Z,31.31
2018-09-19T11:51:51.536Z,31.36
2018-09-19T11:52:51.719Z,31.33
2018-09-19T11:53:51.915Z,31.21
2018-09-19T11:54:52.096Z,31.24
2018-09-19T11:55:52.272Z,31.31
2018-09-19T11:56:52.457Z,31.34
2018-09-19T11:57:52.709Z,31.33
2018-09-19T11:58:52.816Z,31.25
2018-09-19T11:59:53.010Z,31.39
2018-09-19T12:00:53.197Z,31.36
2018-09-19T12:01:53.447Z,31.47
2018-09-19T12:02:53.568Z,31.28
2018-09-19T12:03:53.765Z,31.37
2018-09-19T12:04:53.963Z,31.46
2018-09-19T12:05:54.137Z,31.47
2018-09-19T12:06:54.320Z,31.39
2018-09-19T12:07:54.508Z,31.43
2018-09-19T12:08:54.695Z,31.55
2018-09-19T12:09:54.880Z,31.20
2018-09-19T12:10:55.074Z,30.84
2018-09-19T12:11:55.258Z,30.96
2018-09-19T12:12:55.449Z,31.00
2018-09-19T12:13:55.634Z,30.91
2018-09-19T12:14:55.820Z,31.12
2018-09-19T12:15:56.007Z,31.20
2018-09-19T12:16:56.194Z,31.03
2018-09-19T12:17:56.385Z,30.88
2018-09-19T12:18:56.570Z,30.91
2018-09-19T12:19:56.746Z,30.75
2018-09-19T12:20:56.939Z,30.75
2018-09-19T12:21:57.121Z,30.69
2018-09-19T12:22:57.308Z,30.55
2018-09-19T12:23:57.502Z,30.70
2018-09-19T12:24:57.688Z,30.73
2018-09-19T12:25:57.865Z,30.81
2018-09-19T12:26:58.061Z,30.65
2018-09-19T12:27:58.247Z,30.70
2018-09-19T12:28:58.440Z,30.69
2018-09-19T12:29:58.627Z,30.75
2018-09-19T12:30:58.798Z,30.59
2018-09-19T12:31:58.984Z,30.68
2018-09-19T12:32:59.173Z,30.68
2018-09-19T12:33:59.359Z,30.69
2018-09-19T12:34:59.556Z,30.91
2018-09-19T12:35:59.736Z,31.05
2018-09-19T12:36:59.922Z,30.50
2018-09-19T12:38:00.112Z,30.59
2018-09-19T12:39:00.297Z,30.66
2018-09-19T12:40:00.485Z,30.62
2018-09-19T12:41:00.670Z,30.57
2018-09-19T12:42:00.862Z,30.69
2018-09-19T12:43:01.046Z,30.48
2018-09-19T12:44:01.254Z,30.48
2018-09-19T12:45:01.394Z,30.50
2018-09-19T12:46:01.624Z,30.48
2018-09-19T12:47:01.810Z,30.55
2018-09-19T12:48:01.998Z,30.57
2018-09-19T12:49:03.065Z,30.62
2018-09-19T12:50:02.346Z,30.62
2018-09-19T12:51:02.535Z,30.63
2018-09-19T12:52:02.715Z,30.83
2018-09-19T12:53:02.900Z,30.88
2018-09-19T12:54:03.092Z,30.92
2018-09-19T12:55:03.278Z,31.03
2018-09-19T12:56:03.465Z,31.00
2018-09-19T12:57:03.654Z,31.07